• Join FlightAware (Why Join?)
  • Login
  • US Flag 
Gobble Gobble! 
12:45AM EST


 

Airport Tracker/Info


-or-


 

Live Flight TrackerFlight Track Log ✈ N5352K ✈ 27-Aug-2013 ✈ KOPF - KAPF

Flight Track Log - Related Links

Times and Time Zones

All times are in EDT time to prevent confusion due to time zone crossing. See the N5352K flight status page for this flight to view local times or setup timezone preferences in your user account.

Time Position Orientation Groundspeed Altitude Reporting Facility
EDT Latitude Longitude Course Direction KTS MPH feet Rate Location/Type
09:03AM 25.9130 -80.2790 85° East 76 87  Level FlightAware
09:03AM 25.9130 -80.2710 90° East 79 91 300 780 Climbing FlightAware
09:04AM 25.9140 -80.2620 83° East 72 83 600 660 Climbing FlightAware
09:04AM 25.9140 -80.2540 90° East 66 76 800 600 Climbing FlightAware
09:05AM 25.9140 -80.2480 90° East 68 78 1,000 600 Climbing FlightAware
09:05AM 25.9150 -80.2410 81° East 66 76 1,200 720 Climbing FlightAware
09:05AM 25.9160 -80.2390 61° Northeast 61 70 1,300 720 Climbing FlightAware
09:05AM 25.9190 -80.2380 17° North 68 78 1,400 720 Climbing FlightAware
09:05AM 25.9200 -80.2380 360° North 70 81 1,500 420 Climbing FlightAware
09:05AM 25.9240 -80.2380 360° North 66 76 1,500 360 Level FlightAware
09:06AM 25.9300 -80.2400 343° North 65 75 1,700 660 Climbing FlightAware
09:06AM 25.9380 -80.2420 347° North 65 75 2,000 780 Climbing FlightAware
09:06AM 25.9400 -80.2450 307° West 73 84 2,200 720 Climbing FlightAware
09:06AM 25.9410 -80.2470 299° West 70 81 2,200 600 Level FlightAware
09:07AM 25.9440 -80.2560 290° West 70 81 2,500 600 Climbing FlightAware
09:07AM 25.9460 -80.2610 294° West 70 81 2,600 480 Climbing FlightAware
09:07AM 25.9480 -80.2680 288° West 73 84 2,800 540 Climbing FlightAware
09:08AM 25.9500 -80.2760 286° West 72 83 3,000 420 Climbing FlightAware
09:08AM 25.9530 -80.2830 295° West 78 90 3,100 420 Climbing FlightAware
09:08AM 25.9560 -80.2910 293° West 89 102 3,300 600 Climbing FlightAware
09:09AM 25.9580 -80.3000 284° West 81 93 3,500 540 Climbing FlightAware
09:09AM 25.9610 -80.3100 288° West 82 94 3,700 360 Climbing FlightAware
09:09AM 25.9620 -80.3120 299° West 83 96 3,700 600 Level FlightAware
09:09AM 25.9660 -80.3170 312° West 81 93 3,900 480 Climbing FlightAware
09:10AM 25.9710 -80.3230 313° West 85 98 4,000 120 Climbing FlightAware
09:10AM 25.9750 -80.3290 307° West 96 110 4,000 120 Level FlightAware
09:10AM 25.9810 -80.3360 314° West 96 110 4,100 240 Climbing FlightAware
09:10AM 25.9830 -80.3380 318° Northwest 102 117 4,100  Level FlightAware
09:11AM 25.9870 -80.3450 302° West 105 121 4,100 -180 Level FlightAware
09:11AM 25.9900 -80.3590 283° West 109 125 4,000 -240 Descending FlightAware
09:11AM 25.9940 -80.3690 294° West 109 125 4,000  Level FlightAware
09:12AM 25.9960 -80.3770 286° West 111 128 4,000 180 Level FlightAware
09:12AM 25.9980 -80.3850 286° West 104 120 4,100 180 Climbing FlightAware
09:12AM 26.0000 -80.3940 284° West 102 117 4,100  Level FlightAware
09:12AM 26.0010 -80.4010 279° West 107 123 4,100  Level FlightAware
09:13AM 26.0020 -80.4120 276° West 109 125 4,100  Level FlightAware
09:13AM 26.0040 -80.4210 284° West 106 122 4,100  Level FlightAware
09:13AM 26.0050 -80.4290 278° West 108 124 4,100  Level FlightAware
09:14AM 26.0060 -80.4430 275° West 109 125 4,100  Level FlightAware
09:14AM 26.0060 -80.4510 270° West 109 125 4,100  Level FlightAware
09:14AM 26.0080 -80.4620 281° West 110 127 4,100  Level FlightAware
09:15AM 26.0090 -80.4740 275° West 108 124 4,100  Level FlightAware
09:15AM 26.0110 -80.4900 278° West 108 124 4,100  Level FlightAware
09:15AM 26.0120 -80.4980 278° West 108 124 4,100  Level FlightAware
09:16AM 26.0140 -80.5100 281° West 106 122 4,100 -180 Level FlightAware
09:16AM 26.0140 -80.5200 270° West 114 131 4,000  Descending FlightAware
09:16AM 26.0150 -80.5310 276° West 110 127 4,100  Climbing FlightAware
09:17AM 26.0160 -80.5460 274° West 111 128 4,000 -180 Descending FlightAware
09:17AM 26.0170 -80.5580 275° West 106 122 4,000 120 Level FlightAware
09:17AM 26.0200 -80.5680 288° West 104 120 4,100 180 Climbing FlightAware
09:18AM 26.0230 -80.5720 310° West 107 123 4,100  Level FlightAware
09:18AM 26.0250 -80.5770 294° West 103 119 4,100  Level FlightAware
09:18AM 26.0300 -80.5840 308° West 106 122 4,100  Level FlightAware
09:18AM 26.0350 -80.5900 313° West 101 116 4,100  Level FlightAware
09:19AM 26.0430 -80.6000 312° West 99 114 4,100  Level FlightAware
09:19AM 26.0500 -80.6080 314° West 100 115 4,100  Level FlightAware
09:19AM 26.0560 -80.6140 318° Northwest 101 116 4,100  Level FlightAware
09:20AM 26.0630 -80.6210 318° Northwest 108 124 4,100  Level FlightAware
09:20AM 26.0710 -80.6280 322° Northwest 107 123 4,100  Level FlightAware
09:20AM 26.0790 -80.6340 326° Northwest 98 113 4,100  Level FlightAware
09:21AM 26.0890 -80.6420 324° Northwest 108 124 4,100  Level FlightAware
09:21AM 26.0930 -80.6450 326° Northwest 110 127 4,100  Level FlightAware
09:21AM 26.1030 -80.6540 321° Northwest 106 122 4,100  Level FlightAware
09:22AM 26.1080 -80.6600 313° West 100 115 4,100  Level FlightAware
09:22AM 26.1160 -80.6680 318° Northwest 108 124 4,100  Level FlightAware
09:22AM 26.1230 -80.6750 318° Northwest 101 116 4,100  Level FlightAware
09:23AM 26.1300 -80.6830 314° West 101 116 4,100  Level FlightAware
09:23AM 26.1330 -80.6870 310° West 102 117 4,100 -180 Level FlightAware
09:23AM 26.1430 -80.6970 318° Northwest 102 117 4,000 -180 Descending FlightAware
09:23AM 26.1480 -80.7020 318° Northwest 108 124 4,000  Level FlightAware
09:24AM 26.1550 -80.7100 314° West 101 116 4,000  Level FlightAware
09:24AM 26.1660 -80.7220 316° Northwest 100 115 4,000  Level FlightAware
09:25AM 26.1750 -80.7320 315° West 99 114 4,000  Level FlightAware
09:25AM 26.1820 -80.7400 314° West 96 110 4,000  Level FlightAware
09:25AM 26.1890 -80.7470 318° Northwest 97 112 4,000 120 Level FlightAware
09:26AM 26.1980 -80.7560 318° Northwest 96 110 4,100 120 Climbing FlightAware
09:26AM 26.2050 -80.7630 318° Northwest 99 114 4,100  Level FlightAware
09:26AM 26.2110 -80.7710 310° West 102 117 4,100  Level FlightAware
09:27AM 26.2180 -80.7790 314° West 104 120 4,100  Level FlightAware
09:27AM 26.2240 -80.7860 314° West 97 112 4,100  Level FlightAware
09:27AM 26.2300 -80.7920 318° Northwest 96 110 4,100  Level FlightAware
09:28AM 26.2370 -80.7990 318° Northwest 102 117 4,100  Level FlightAware
09:28AM 26.2410 -80.8020 326° Northwest 97 112 4,100  Level FlightAware
09:28AM 26.2470 -80.8090 314° West 103 119 4,100  Level FlightAware
09:28AM 26.2530 -80.8140 323° Northwest 99 114 4,100  Level FlightAware
09:29AM 26.2600 -80.8220 314° West 99 114 4,100  Level FlightAware
09:29AM 26.2670 -80.8300 314° West 97 112 4,100  Level FlightAware
09:29AM 26.2730 -80.8370 314° West 107 123 4,100  Level FlightAware
09:30AM 26.2740 -80.8400 290° West 108 124 4,100  Level FlightAware
09:30AM 26.2750 -80.8460 281° West 109 125 4,100  Level FlightAware
09:30AM 26.2740 -80.8570 264° West 109 125 4,100  Level FlightAware
09:30AM 26.2710 -80.8710 257° West 108 124 4,100 -180 Level FlightAware
09:31AM 26.2690 -80.8820 259° West 109 125 4,000 -180 Descending FlightAware
09:31AM 26.2670 -80.8900 254° West 106 122 4,000  Level FlightAware
09:31AM 26.2640 -80.9040 257° West 108 124 4,000  Level FlightAware
09:32AM 26.2620 -80.9170 260° West 107 123 4,000 120 Level FlightAware
09:32AM 26.2600 -80.9280 259° West 105 121 4,100  Climbing FlightAware
09:33AM 26.2590 -80.9380 264° West 108 124 4,000  Descending FlightAware
09:33AM 26.2580 -80.9490 264° West 108 124 4,100  Climbing FlightAware
09:33AM 26.2570 -80.9650 266° West 108 124 4,000  Descending FlightAware
09:34AM 26.2560 -80.9830 266° West 109 125 4,100 120 Climbing FlightAware
09:34AM 26.2550 -80.9890 259° West 108 124 4,100  Level FlightAware
09:34AM 26.2530 -81.0000 259° West 110 127 4,100  Level FlightAware
09:35AM 26.2520 -81.0080 262° West 108 124 4,100  Level FlightAware
09:35AM 26.2500 -81.0200 259° West 107 123 4,100  Level FlightAware
09:35AM 26.2480 -81.0300 257° West 109 125 4,100 -180 Level FlightAware
09:36AM 26.2460 -81.0410 259° West 107 123 4,000 -180 Descending FlightAware
09:36AM 26.2440 -81.0500 256° West 108 124 4,000  Level FlightAware
09:36AM 26.2430 -81.0590 263° West 111 128 4,000  Level FlightAware
09:37AM 26.2410 -81.0730 261° West 108 124 4,000  Level FlightAware
09:37AM 26.2390 -81.0850 259° West 106 122 4,000  Level FlightAware
09:37AM 26.2380 -81.0910 259° West 104 120 4,000  Level FlightAware
09:37AM 26.2370 -81.0960 257° West 106 122 4,000  Level FlightAware
09:38AM 26.2360 -81.1050 263° West 103 119  Descending FlightAware
09:38AM 26.2350 -81.1160 264° West 103 119 420 Level FlightAware
09:38AM 26.2330 -81.1310 262° West 106 122 480 Level FlightAware
09:39AM 26.2320 -81.1420 264° West 109 125 480 Level FlightAware
09:39AM 26.2300 -81.1560 261° West 107 123 540 Level FlightAware
09:39AM 26.2290 -81.1670 264° West 108 124 540 Level FlightAware
09:40AM 26.2280 -81.1740 261° West 109 125 600 Level FlightAware
09:40AM 26.2270 -81.1850 264° West 108 124 600 Level FlightAware
09:41AM 26.2260 -81.2030 266° West 108 124 600 Level FlightAware
09:41AM 26.2240 -81.2220 263° West 108 124 720 Level FlightAware
09:42AM 26.2230 -81.2350 265° West 107 123 780 Level FlightAware
09:42AM 26.2180 -81.2580 256° West 107 123 840 Level FlightAware
09:43AM 26.2150 -81.2890 264° West 104 120 1,020 Level FlightAware
09:44AM 26.2130 -81.3070 263° West 105 121 1,320 Level FlightAware
09:45AM 26.2090 -81.3410 263° West 105 121 1,680 Level FlightAware
09:45AM 26.2070 -81.3570 262° West 104 120 2,760 Level FlightAware
09:46AM 26.2044 -81.3858 262° West 103 119 4,100 2,160 Climbing Miami Center
09:47AM 26.2036 -81.4181 268° West 108 124 4,200  Climbing Miami Center
09:48AM 26.2003 -81.4525 264° West 108 124 4,100 -420 Descending Miami Center
09:49AM 26.1992 -81.4872 268° West 108 124 3,400 -540 Descending Miami Center
09:50AM 26.1939 -81.5219 260° West 108 124 3,100 -300 Descending Miami Center
09:52AM 26.1633 -81.5462 216° Southwest  Level FlightAware Approximate
09:59AM 26.1500 -81.7667 283° West  Level FlightAware Approximate
10:00AM 26.1524 -81.7756 283° West  Level Estimated
10:01AM 26.1524 -81.7756 283° West  Level Estimated
10:02AM 26.1524 -81.7756 283° West  Level Estimated
10:03AM 26.1524 -81.7756 283° West  Level Estimated
10:04AM 26.1524 -81.7756 283° West  Level Estimated
10:05AM 26.1524 -81.7756 283° West  Level Estimated
10:06AM 26.1524 -81.7756 283° West  Level Estimated
10:07AM 26.1524 -81.7756 283° West  Level Estimated
10:08AM 26.1524 -81.7756 283° West  Level Estimated
10:09AM 26.1524 -81.7756 283° West  Level Estimated
10:10AM 26.1524 -81.7756 283° West  Level Estimated
10:11AM 26.1524 -81.7756 283° West  Level Estimated
10:12AM 26.1524 -81.7756 283° West  Level Estimated
10:13AM 26.1524 -81.7756 283° West  Level Estimated
10:14AM 26.1524 -81.7756 283° West  Level Estimated
10:15AM 26.1524 -81.7756 283° West  Level Estimated